Current Weather

Tokyo Intl

Tokyo, Japan (RJTT)

Report from: Monday, June 17, 2024 7:00 PM JST
Current time: Monday, June 17, 2024 7:16 PM JST

Nearby weather – Weather history – Daily summaries
Weather forecast

Temperature25.0°C (77.0°F)
Dew point20.0°C (68.0°F)
Winds 11 kts (5.7 m/s, 12.7 mph) South-Southeast (160°)
Visibility6.2 mi. (10 km)
Clouds Few clouds 3,000 ft. (914 m)
Ceiling: Broken clouds 14,000 ft. (4,267 m)
Altimeter29.77 in.Hg (1008 mB)
Relative humidity74 %
Density altitude1,652 ft. (503 m)
Remarks No significant changes expected in the next two hours
Flight conditions Visual Meteorological Conditions
Raw dataRJTT 171000Z 16011KT 9999 FEW030 BKN140 25/20 Q1008 NOSIG
An error has occurred. This application may no longer respond until reloaded. Reload 🗙